Time;durP1;ratioP1;P1;durP2;ratioP2;P2;SDS_P1;SDS_P2;PMS_P1;PMS_P2;Temp;Humidity;BMP_temperature;BMP_pressure;BME280_temperature;BME280_humidity;BME280_pressure;Samples;Min_cycle;Max_cycle;Signal;HPM_P1;HPM_P2
2023/01/02 05:30:48;;;;;;;;;0.00;0.00;;;;;13.01;82.40;101160.91;5029901;28;45587;-73
2023/01/02 05:33:14;;;;;;;;;0.00;0.00;;;;;12.99;82.01;101164.63;5023794;28;45434;-73
2023/01/02 05:35:39;;;;;;;;;0.50;0.00;;;;;12.89;82.22;101150.75;5016768;28;45232;-74
2023/01/02 05:38:04;;;;;;;;;0.00;0.00;;;;;12.88;81.74;101157.06;5016589;28;46123;-71
2023/01/02 05:40:30;;;;;;;;;0.00;0.00;;;;;12.99;81.74;101186.16;5016601;28;46010;-73
2023/01/02 05:42:57;;;;;;;;;0.00;0.00;;;;;13.01;82.15;101195.03;5016288;28;45290;-72
2023/01/02 05:45:22;;;;;;;;;0.00;0.00;;;;;12.96;82.22;101186.28;5021969;28;45200;-72
2023/01/02 05:47:47;;;;;;;;;0.00;0.00;;;;;13.01;81.96;101195.91;5016059;28;45541;-72
2023/01/02 05:50:13;;;;;;;;;0.25;0.00;;;;;12.88;82.12;101192.03;5020599;28;46306;-71
2023/01/02 05:52:39;;;;;;;;;0.00;0.00;;;;;12.89;82.45;101200.06;5016376;28;45166;-70
2023/01/02 05:55:04;;;;;;;;;0.00;0.00;;;;;12.93;82.67;101205.31;5016924;28;45312;-73
2023/01/02 05:57:29;;;;;;;;;0.00;0.00;;;;;12.88;83.20;101197.44;5022723;28;45584;-72
2023/01/02 05:59:55;;;;;;;;;0.00;0.00;;;;;12.91;82.92;101199.97;5036091;28;45247;-73
2023/01/02 06:02:20;;;;;;;;;0.00;0.00;;;;;12.96;82.97;101194.38;5016365;28;45299;-71
2023/01/02 06:04:45;;;;;;;;;2.50;0.00;;;;;13.01;83.03;101197.72;5031415;28;45385;-72
2023/01/02 06:07:11;;;;;;;;;0.00;0.00;;;;;12.99;82.57;101202.31;5015425;28;46109;-72
2023/01/02 06:09:36;;;;;;;;;0.00;0.00;;;;;13.02;82.32;101208.38;5016277;28;45483;-72
2023/01/02 06:12:02;;;;;;;;;0.00;0.00;;;;;13.00;81.51;101207.63;5015974;28;45385;-72
2023/01/02 06:14:27;;;;;;;;;0.00;0.00;;;;;12.92;82.33;101199.03;5031618;28;45287;-71
2023/01/02 06:16:52;;;;;;;;;0.00;0.00;;;;;13.00;81.90;101215.69;5016027;28;45641;-73
2023/01/02 06:19:18;;;;;;;;;0.00;0.00;;;;;12.93;82.03;101216.91;5015660;28;45382;-72
2023/01/02 06:21:43;;;;;;;;;0.00;0.00;;;;;12.88;81.98;101225.22;5016264;28;45389;-72
2023/01/02 06:24:08;;;;;;;;;0.00;0.00;;;;;12.67;82.10;101217.31;5017131;28;45293;-73
2023/01/02 06:26:34;;;;;;;;;0.00;0.00;;;;;12.73;82.44;101219.69;5016759;28;45245;-71
2023/01/02 06:28:59;;;;;;;;;0.00;0.00;;;;;12.72;81.95;101207.19;5016864;28;45265;-74
2023/01/02 06:31:26;;;;;;;;;0.00;0.00;;;;;12.72;82.16;101212.56;5024391;28;45448;-72
2023/01/02 06:33:59;;;;;;;;;0.00;0.00;;;;;12.75;82.53;101225.88;5034963;28;45276;-74
2023/01/02 06:36:28;;;;;;;;;0.00;0.00;;;;;12.80;81.57;101250.75;5035376;28;45554;-72
2023/01/02 06:38:54;;;;;;;;;0.00;0.00;;;;;12.70;81.85;101233.28;5035727;28;45383;-72
2023/01/02 06:41:19;;;;;;;;;0.00;0.00;;;;;12.70;82.55;101244.03;5034486;28;45359;-73
2023/01/02 06:43:47;;;;;;;;;0.00;0.00;;;;;12.66;82.35;101237.94;5035297;28;45292;-74
2023/01/02 06:46:14;;;;;;;;;0.00;0.00;;;;;12.63;81.92;101238.06;5035360;28;45352;-77
2023/01/02 06:48:41;;;;;;;;;0.00;0.00;;;;;12.74;81.61;101249.22;5034926;28;45458;-74
2023/01/02 06:51:11;;;;;;;;;0.00;0.00;;;;;12.65;81.87;101236.19;5035428;28;45201;-78
2023/01/02 06:53:39;;;;;;;;;0.00;0.00;;;;;12.68;81.11;101241.41;5034143;28;45395;-77
2023/01/02 06:56:06;;;;;;;;;0.00;0.00;;;;;12.62;82.38;101230.94;5035432;28;45340;-75
2023/01/02 06:58:33;;;;;;;;;0.00;0.00;;;;;12.73;81.75;101247.47;5016082;28;47190;-76
2023/01/02 07:01:19;;;;;;;;;0.00;0.00;;;;;12.76;81.20;101228.47;5029620;28;45400;-74
2023/01/02 07:03:44;;;;;;;;;0.00;0.00;;;;;12.78;80.15;101231.97;5031933;28;45603;-77
2023/01/02 07:06:18;;;;;;;;;0.00;0.00;;;;;12.76;80.79;101235.69;5033539;28;45567;-74
2023/01/02 07:08:45;;;;;;;;;0.25;0.00;;;;;12.73;80.33;101230.44;5034911;28;45492;-76
2023/01/02 07:11:15;;;;;;;;;0.00;0.00;;;;;12.81;79.98;101247.09;5016321;28;45570;-77
2023/01/02 07:13:42;;;;;;;;;0.00;0.00;;;;;12.74;80.19;101259.97;5034385;28;45344;-76
2023/01/02 07:16:11;;;;;;;;;0.00;0.00;;;;;12.68;80.05;101264.75;5034098;28;45672;-75
2023/01/02 07:18:37;;;;;;;;;0.00;0.00;;;;;12.57;80.81;101242.88;5033248;28;45379;-75
2023/01/02 07:21:04;;;;;;;;;0.00;0.00;;;;;12.63;80.01;101262.28;5033964;28;45482;-75
2023/01/02 07:23:29;;;;;;;;;0.00;0.00;;;;;12.53;80.55;101250.19;5034809;28;45343;-77
2023/01/02 07:25:59;;;;;;;;;0.00;0.00;;;;;12.72;79.89;101269.06;5034581;28;45442;-75
2023/01/02 07:28:24;;;;;;;;;0.00;0.00;;;;;12.76;80.48;101273.38;5034922;28;45356;-77
2023/01/02 07:30:51;;;;;;;;;0.00;0.00;;;;;12.80;80.13;101280.34;5034103;28;45471;-75
2023/01/02 07:33:16;;;;;;;;;0.00;0.00;;;;;12.75;79.10;101271.63;5034404;28;45605;-75
2023/01/02 07:35:43;;;;;;;;;0.00;0.00;;;;;12.62;79.40;101252.47;5034356;28;45534;-76
2023/01/02 07:38:09;;;;;;;;;0.00;0.00;;;;;12.74;79.25;101273.44;5034493;28;45462;-76
2023/01/02 07:40:34;;;;;;;;;0.00;0.00;;;;;12.61;79.38;101263.28;5034214;28;45287;-75
2023/01/02 07:42:59;;;;;;;;;0.00;0.00;;;;;12.63;79.59;101264.97;5034204;28;45308;-75
2023/01/02 07:45:25;;;;;;;;;0.00;0.00;;;;;12.71;79.19;101292.41;5033497;28;45427;-77
2023/01/02 07:47:50;;;;;;;;;1.00;0.00;;;;;12.45;79.06;101245.16;5034270;28;45346;-75
2023/01/02 07:50:15;;;;;;;;;0.00;0.00;;;;;12.75;79.50;101307.47;5033634;28;45574;-75
2023/01/02 07:52:42;;;;;;;;;0.00;0.00;;;;;12.66;79.29;101293.56;5034668;28;45419;-76
2023/01/02 07:55:08;;;;;;;;;0.00;0.00;;;;;12.78;78.96;101314.50;5034676;28;45425;-76
2023/01/02 07:57:33;;;;;;;;;0.00;0.00;;;;;12.68;79.00;101297.03;5034928;28;45336;-75
2023/01/02 07:59:58;;;;;;;;;0.00;0.00;;;;;12.75;78.55;101325.44;5017005;28;45368;-77
2023/01/02 08:02:24;;;;;;;;;0.00;0.00;;;;;12.72;78.12;101337.19;5034424;28;45735;-75
2023/01/02 08:04:49;;;;;;;;;0.00;0.00;;;;;12.70;78.70;101330.13;5033962;28;45547;-76
2023/01/02 08:07:14;;;;;;;;;1.00;0.00;;;;;12.71;78.41;101348.91;5033632;28;46416;-76
2023/01/02 08:09:40;;;;;;;;;0.00;0.00;;;;;12.67;78.24;101354.50;5016098;28;45530;-73
2023/01/02 08:12:05;;;;;;;;;0.00;0.00;;;;;12.64;79.04;101360.00;5034231;28;45325;-77
2023/01/02 08:14:31;;;;;;;;;0.00;0.00;;;;;12.57;78.61;101342.38;5035883;28;45430;-78
2023/01/02 08:16:56;;;;;;;;;0.00;0.00;;;;;12.55;78.23;101350.53;5034286;28;45379;-75
2023/01/02 08:19:21;;;;;;;;;0.00;0.00;;;;;12.58;78.38;101355.78;5033435;28;45537;-77
2023/01/02 08:21:47;;;;;;;;;0.00;0.00;;;;;12.57;78.57;101364.78;5032516;28;45668;-77
2023/01/02 08:24:12;;;;;;;;;0.25;0.00;;;;;12.48;78.72;101362.50;5033841;28;45417;-76
2023/01/02 08:26:37;;;;;;;;;0.00;0.00;;;;;12.34;78.94;101346.94;5033394;28;45998;-76
2023/01/02 08:29:03;;;;;;;;;0.00;0.00;;;;;12.46;78.43;101365.25;5032833;28;45498;-76
2023/01/02 08:31:28;;;;;;;;;1.00;1.00;;;;;12.52;78.70;101383.78;5037597;28;45513;-76
2023/01/02 08:33:54;;;;;;;;;0.00;0.00;;;;;12.40;78.56;101364.66;5037063;28;45526;-77
2023/01/02 08:36:19;;;;;;;;;0.00;0.00;;;;;12.45;79.08;101378.75;5025166;28;46233;-76
2023/01/02 08:38:45;;;;;;;;;0.00;0.00;;;;;12.35;78.71;101391.72;5017694;28;45494;-78
2023/01/02 08:41:10;;;;;;;;;0.00;0.00;;;;;12.36;78.80;101393.47;5017503;28;46356;-77
2023/01/02 08:43:36;;;;;;;;;0.00;0.00;;;;;12.31;78.83;101391.94;5017002;28;45383;-73
2023/01/02 08:46:06;;;;;;;;;0.00;0.00;;;;;12.41;78.71;101399.53;5035731;28;45291;-72
2023/01/02 08:48:32;;;;;;;;;0.00;0.00;;;;;12.39;78.10;101419.38;5034022;28;45409;-73
2023/01/02 08:50:57;;;;;;;;;0.00;0.00;;;;;12.41;78.42;101428.25;5035833;28;45509;-74
2023/01/02 08:53:23;;;;;;;;;0.00;0.00;;;;;12.41;78.39;101436.31;5037023;28;45339;-73
2023/01/02 08:55:48;;;;;;;;;0.25;0.00;;;;;12.46;78.47;101458.50;5036918;28;46311;-73
2023/01/02 08:58:13;;;;;;;;;0.25;0.00;;;;;12.46;77.63;101474.63;5024389;28;45483;-74
2023/01/02 09:00:39;;;;;;;;;0.00;0.00;;;;;12.52;77.79;101485.13;5035565;28;45657;-73
2023/01/02 09:03:04;;;;;;;;;0.00;0.00;;;;;12.44;78.20;101493.50;5035956;28;45652;-74
2023/01/02 09:05:29;;;;;;;;;0.00;0.00;;;;;12.43;77.85;101499.81;5018984;28;47350;-73
2023/01/02 09:07:56;;;;;;;;;0.00;0.00;;;;;12.40;78.11;101515.25;5034199;28;45360;-72
2023/01/02 09:10:21;;;;;;;;;0.00;0.00;;;;;12.40;78.68;101499.09;5036465;28;45395;-74
2023/01/02 09:12:47;;;;;;;;;0.00;0.00;;;;;12.46;78.93;101513.16;5027846;28;45460;-74
2023/01/02 09:15:13;;;;;;;;;1.00;0.00;;;;;12.30;79.00;101501.28;5008085;28;48185;-75
2023/01/02 09:17:38;;;;;;;;;0.00;0.00;;;;;12.29;78.89;101502.22;5037281;28;45358;-74
2023/01/02 09:20:04;;;;;;;;;0.00;0.00;;;;;12.31;79.36;101486.03;5037147;28;45466;-73
2023/01/02 09:22:29;;;;;;;;;0.00;0.00;;;;;12.27;79.35;101465.56;5037252;28;45423;-73
2023/01/02 09:24:54;;;;;;;;;0.00;0.00;;;;;12.27;79.19;101463.75;5037139;28;45244;-73
2023/01/02 09:27:20;;;;;;;;;0.50;0.00;;;;;12.24;79.39;101495.28;5037002;28;45363;-74
2023/01/02 09:29:45;;;;;;;;;0.00;0.00;;;;;12.22;79.16;101498.03;5028586;28;45391;-73
2023/01/02 09:32:10;;;;;;;;;0.00;0.00;;;;;12.16;79.94;101514.44;5036214;28;45642;-74
2023/01/02 09:34:36;;;;;;;;;0.00;0.00;;;;;12.13;79.70;101518.09;5036189;28;45516;-73
2023/01/02 09:37:01;;;;;;;;;0.00;0.00;;;;;12.17;79.93;101515.28;5034818;28;45400;-74
2023/01/02 09:39:26;;;;;;;;;0.00;0.00;;;;;12.27;79.66;101530.97;5036320;28;45427;-73
2023/01/02 09:41:57;;;;;;;;;2.00;0.75;;;;;12.25;79.83;101526.63;5026055;28;45475;-73
2023/01/02 09:44:42;;;;;;;;;0.00;0.00;;;;;12.29;79.97;101528.22;5015088;28;45720;-74
2023/01/02 09:47:10;;;;;;;;;0.00;0.00;;;;;12.35;79.53;101536.91;5015954;28;45402;-73
2023/01/02 09:49:40;;;;;;;;;2.00;0.00;;;;;12.23;79.12;101526.69;5022955;28;45345;-72
2023/01/02 09:52:07;;;;;;;;;0.00;0.00;;;;;12.25;79.33;101548.97;5036065;28;45439;-73
2023/01/02 09:54:33;;;;;;;;;0.00;0.00;;;;;12.24;79.60;101568.75;5028579;28;46208;-72
2023/01/02 09:57:40;;;;;;;;;0.00;0.00;;;;;12.30;80.02;101579.25;5017177;28;45246;-72
2023/01/02 10:00:15;;;;;;;;;0.00;0.00;;;;;12.29;79.30;101577.50;5002855;28;45398;-72
2023/01/02 10:03:02;;;;;;;;;0.00;0.00;;;;;12.41;79.67;101595.84;5015912;28;45466;-73
2023/01/02 10:05:39;;;;;;;;;3.00;0.00;;;;;12.39;79.12;101581.59;5015624;28;45415;-71
2023/01/02 10:08:49;;;;;;;;;0.00;0.00;;;;;12.37;79.39;101593.34;5016162;28;45372;-73
2023/01/02 10:11:37;;;;;;;;;0.00;0.00;;;;;12.33;79.45;101583.66;4996655;28;45410;-72
2023/01/02 10:14:31;;;;;;;;;0.00;0.00;;;;;12.32;79.79;101588.16;5010492;28;45415;-73
2023/01/02 10:16:59;;;;;;;;;0.00;0.00;;;;;12.28;80.34;101569.50;5015426;28;45406;-73
2023/01/02 10:19:53;;;;;;;;;0.00;0.00;;;;;12.20;80.06;101563.53;5015315;28;45726;-74
2023/01/02 10:22:26;;;;;;;;;0.00;0.00;;;;;12.18;80.43;101560.91;5015925;28;45501;-73
2023/01/02 10:25:00;;;;;;;;;0.00;0.00;;;;;12.14;80.44;101556.63;5015436;28;45346;-73
2023/01/02 10:27:31;;;;;;;;;0.00;0.00;;;;;12.20;80.38;101555.47;5015669;28;45507;-74
2023/01/02 10:30:15;;;;;;;;;0.00;0.00;;;;;12.23;80.17;101550.88;5015651;28;45352;-75
2023/01/02 10:32:45;;;;;;;;;0.00;0.00;;;;;12.31;80.22;101553.25;5020468;28;45339;-74
2023/01/02 10:35:37;;;;;;;;;0.00;0.00;;;;;12.36;79.37;101572.75;5036964;28;45344;-73
2023/01/02 10:38:03;;;;;;;;;0.00;0.00;;;;;12.33;79.94;101575.59;5033241;28;45388;-74
2023/01/02 10:40:31;;;;;;;;;0.00;0.00;;;;;12.34;79.33;101575.50;5022002;28;45375;-73
2023/01/02 10:42:58;;;;;;;;;0.75;0.50;;;;;12.43;79.60;101585.88;5035430;28;45348;-71
2023/01/02 10:45:24;;;;;;;;;0.00;0.00;;;;;12.43;79.50;101576.94;5018772;28;45394;-74
2023/01/02 10:47:49;;;;;;;;;0.25;0.00;;;;;12.54;78.61;101593.53;5035178;28;46006;-72
2023/01/02 10:50:29;;;;;;;;;1.00;1.00;;;;;12.50;79.15;101614.28;5035731;28;45281;-75
2023/01/02 10:53:04;;;;;;;;;0.00;0.00;;;;;12.45;79.19;101613.59;5036500;28;45367;-74
2023/01/02 10:55:38;;;;;;;;;0.00;0.00;;;;;12.45;79.28;101629.75;5035436;28;45240;-72
2023/01/02 10:58:11;;;;;;;;;0.00;0.00;;;;;12.45;78.67;101634.25;5023645;28;45502;-74
2023/01/02 11:00:37;;;;;;;;;0.25;0.25;;;;;12.45;78.00;101621.66;5020664;28;45188;-73
2023/01/02 11:03:11;;;;;;;;;0.00;0.00;;;;;12.40;78.03;101636.25;5028842;28;45587;-77
2023/01/02 11:05:51;;;;;;;;;0.00;0.00;;;;;12.38;77.81;101624.66;5034686;28;45334;-73
2023/01/02 11:08:20;;;;;;;;;0.00;0.00;;;;;12.29;78.34;101631.28;5034840;28;46424;-73
2023/01/02 11:10:46;;;;;;;;;0.25;0.25;;;;;12.21;78.63;101628.00;5034997;28;45288;-73
2023/01/02 11:13:14;;;;;;;;;0.00;0.00;;;;;12.22;78.97;101627.09;5017278;28;45338;-72
2023/01/02 11:15:51;;;;;;;;;1.25;0.00;;;;;12.33;78.48;101642.81;5035188;28;45353;-77
2023/01/02 11:18:24;;;;;;;;;0.00;0.00;;;;;12.39;78.77;101648.81;5016878;28;48129;-78
2023/01/02 11:20:53;;;;;;;;;1.75;0.00;;;;;12.53;78.23;101653.63;5034802;28;45511;-75
2023/01/02 11:23:24;;;;;;;;;1.00;1.00;;;;;12.52;78.29;101644.69;5033498;28;45299;-76
2023/01/02 11:25:52;;;;;;;;;0.25;0.25;;;;;12.60;78.03;101644.38;5010836;28;46186;-77
2023/01/02 11:28:22;;;;;;;;;2.25;1.25;;;;;12.56;77.75;101623.94;5034967;28;45512;-77
2023/01/02 11:30:51;;;;;;;;;2.00;1.00;;;;;12.80;77.36;101632.81;5034448;28;45487;-75
2023/01/02 11:33:23;;;;;;;;;1.00;1.00;;;;;12.95;76.73;101645.66;5034945;28;45406;-77
2023/01/02 11:36:03;;;;;;;;;1.00;1.00;;;;;13.10;75.48;101650.38;5034418;28;45357;-77
2023/01/02 11:38:52;;;;;;;;;2.25;1.00;;;;;13.33;75.30;101649.47;5026731;28;46319;-75
2023/01/02 11:44:27;;;;;;;;;0.00;0.00;;;;;13.50;73.05;101649.63;5029016;28;45443;-75
2023/01/02 11:46:53;;;;;;;;;1.00;1.00;;;;;13.59;73.39;101653.72;5033686;28;45612;-76
2023/01/02 11:49:24;;;;;;;;;1.00;1.00;;;;;13.58;71.19;101652.84;5034029;28;46286;-75
2023/01/02 11:51:57;;;;;;;;;0.00;0.00;;;;;13.51;72.37;101677.44;5034506;28;45455;-75
2023/01/02 11:54:37;;;;;;;;;1.00;1.00;;;;;13.46;71.98;101657.88;5034896;28;45458;-76
2023/01/02 11:57:03;;;;;;;;;1.00;1.00;;;;;13.59;71.61;101668.06;5030899;28;45712;-75
2023/01/02 11:59:41;;;;;;;;;1.00;1.00;;;;;13.73;71.29;101666.56;5019970;28;46078;-75
2023/01/02 12:02:18;;;;;;;;;1.00;1.00;;;;;13.84;70.09;101672.38;5034025;28;45521;-75
2023/01/02 12:04:44;;;;;;;;;0.00;0.00;;;;;13.65;70.30;101656.13;5034251;28;45180;-75
2023/01/02 12:07:33;;;;;;;;;2.00;0.00;;;;;13.71;69.20;101680.13;5034312;28;45451;-75
2023/01/02 12:10:08;;;;;;;;;0.00;0.00;;;;;13.64;69.50;101690.28;5034553;28;46700;-75
2023/01/02 12:12:47;;;;;;;;;0.00;0.00;;;;;13.63;69.78;101688.53;5034673;28;45490;-73
2023/01/02 12:15:56;;;;;;;;;2.00;0.00;;;;;13.55;69.99;101701.47;5034495;28;45509;-73
2023/01/02 12:18:47;;;;;;;;;4.75;4.25;;;;;13.57;69.15;101687.94;4970003;28;45519;-75
2023/01/02 12:21:50;;;;;;;;;0.75;0.75;;;;;13.64;68.25;101690.28;5033789;28;45385;-74
2023/01/02 12:24:45;;;;;;;;;0.25;0.25;;;;;13.38;69.08;101700.44;5034391;28;45308;-75
2023/01/02 12:27:18;;;;;;;;;0.50;0.50;;;;;13.34;69.44;101694.31;5035336;28;45405;-75
2023/01/02 12:30:02;;;;;;;;;0.00;0.00;;;;;13.23;69.91;101699.25;5034325;28;45342;-74
2023/01/02 12:32:48;;;;;;;;;0.00;0.00;;;;;13.19;69.16;101706.59;5033811;28;46462;-74
2023/01/02 12:35:32;;;;;;;;;1.00;1.00;;;;;13.21;69.80;101706.53;5033929;28;45419;-74
2023/01/02 12:38:00;;;;;;;;;0.25;0.25;;;;;13.10;68.94;101698.00;5033807;28;45360;-73
2023/01/02 12:40:26;;;;;;;;;0.00;0.00;;;;;13.20;69.12;101713.72;5032739;28;45371;-76
2023/01/02 12:42:57;;;;;;;;;0.25;0.25;;;;;13.30;67.18;101716.03;5033754;28;45526;-74
2023/01/02 12:45:40;;;;;;;;;0.00;0.00;;;;;13.27;67.98;101715.22;5029380;28;45465;-74
2023/01/02 12:48:33;;;;;;;;;0.00;0.00;;;;;13.43;67.91;101714.59;5033825;28;45423;-74
2023/01/02 12:51:15;;;;;;;;;8.50;4.50;;;;;13.53;67.11;101730.28;5019540;28;45404;-74
2023/01/02 12:54:06;;;;;;;;;0.00;0.00;;;;;13.51;66.28;101736.69;5033402;28;45539;-73
2023/01/02 12:56:43;;;;;;;;;0.25;0.25;;;;;13.69;66.68;101724.25;5033876;28;45328;-73
2023/01/02 12:59:51;;;;;;;;;0.00;0.00;;;;;13.72;65.76;101726.81;5000857;28;45394;-74
2023/01/02 13:02:38;;;;;;;;;0.00;0.00;;;;;13.79;65.33;101737.25;5026995;28;46238;-71
2023/01/02 13:05:13;;;;;;;;;0.00;0.00;;;;;13.74;63.85;101741.97;5033105;28;45331;-72
2023/01/02 13:07:47;;;;;;;;;0.25;0.25;;;;;13.77;64.25;101744.56;5031576;28;45606;-73
2023/01/02 13:10:17;;;;;;;;;0.00;0.00;;;;;13.76;64.07;101747.31;5031580;28;45578;-74
2023/01/02 13:12:44;;;;;;;;;1.00;0.00;;;;;13.68;64.08;101736.84;5033355;28;45408;-73
2023/01/02 13:15:20;;;;;;;;;0.75;0.75;;;;;13.77;64.64;101728.38;5033135;28;46485;-72
2023/01/02 13:17:49;;;;;;;;;0.00;0.00;;;;;13.89;64.01;101744.00;5033374;28;45328;-73
2023/01/02 13:20:38;;;;;;;;;0.00;0.00;;;;;13.54;63.64;101747.31;5037031;28;45239;-74
2023/01/02 13:23:29;;;;;;;;;0.00;0.00;;;;;13.49;64.66;101763.69;5036586;28;45493;-72
2023/01/02 13:26:17;;;;;;;;;0.00;0.00;;;;;13.19;64.31;101738.00;5025411;28;46766;-73
2023/01/02 13:29:00;;;;;;;;;0.00;0.00;;;;;13.37;64.89;101764.19;5037159;28;45362;-73
2023/01/02 13:31:27;;;;;;;;;0.50;0.50;;;;;13.35;63.81;101767.91;5037068;28;45483;-70
2023/01/02 13:33:54;;;;;;;;;0.00;0.00;;;;;13.21;64.62;101763.94;5037384;28;45334;-71
2023/01/02 13:36:38;;;;;;;;;3.25;0.00;;;;;13.22;64.13;101775.59;5019410;28;46029;-70
2023/01/02 13:39:17;;;;;;;;;0.00;0.00;;;;;13.25;64.30;101776.38;5037569;28;45592;-74
2023/01/02 13:44:42;;;;;;;;;0.00;0.00;;;;;13.04;64.35;101777.19;5032166;28;45363;-74
2023/01/02 13:47:13;;;;;;;;;0.00;0.00;;;;;12.98;64.75;101785.50;5036145;28;45840;-75
2023/01/02 13:49:40;;;;;;;;;1.00;1.00;;;;;12.92;64.68;101779.50;5026138;28;45395;-76
2023/01/02 13:52:14;;;;;;;;;0.00;0.00;;;;;12.85;65.28;101774.31;5014719;28;45304;-74
2023/01/02 13:54:39;;;;;;;;;1.00;1.00;;;;;12.93;65.06;101792.00;5025539;28;45333;-75
2023/01/02 13:57:23;;;;;;;;;2.00;0.00;;;;;12.96;63.48;101783.78;5033184;28;45857;-73
2023/01/02 14:00:01;;;;;;;;;0.00;0.00;;;;;12.92;63.06;101787.56;5017702;28;45298;-74
2023/01/02 14:02:26;;;;;;;;;0.00;0.00;;;;;12.84;63.02;101806.69;5023952;28;45589;-74
2023/01/02 14:04:52;;;;;;;;;0.00;0.00;;;;;12.76;62.44;101796.19;5018506;28;45555;-73
2023/01/02 14:07:27;;;;;;;;;6.25;5.25;;;;;12.82;62.50;101798.69;5036259;28;45502;-75
2023/01/02 14:10:18;;;;;;;;;1.00;1.00;;;;;12.86;62.55;101803.00;5036142;28;45320;-75
2023/01/02 14:12:50;;;;;;;;;1.00;1.00;;;;;12.96;62.38;101810.72;5015912;28;45381;-74
2023/01/02 14:15:26;;;;;;;;;0.00;0.00;;;;;13.06;62.49;101801.34;5005528;28;45506;-74
2023/01/02 14:18:04;;;;;;;;;0.00;0.00;;;;;13.12;61.49;101818.13;5015911;28;46023;-75
2023/01/02 14:20:34;;;;;;;;;1.50;0.00;;;;;13.15;61.86;101815.38;5035461;28;45413;-74
2023/01/02 14:23:08;;;;;;;;;0.00;0.00;;;;;13.21;61.51;101820.50;5035891;28;45386;-75
2023/01/02 14:25:44;;;;;;;;;0.00;0.00;;;;;13.29;61.13;101830.09;5035017;28;45392;-74
2023/01/02 14:28:20;;;;;;;;;2.00;1.00;;;;;13.32;61.06;101838.94;5012895;28;45449;-75
2023/01/02 14:30:47;;;;;;;;;1.50;0.00;;;;;13.29;60.59;101822.88;5028337;28;45381;-74
2023/01/02 14:33:17;;;;;;;;;0.00;0.00;;;;;13.34;60.57;101837.06;5035631;28;45439;-74
2023/01/02 14:35:52;;;;;;;;;0.75;0.75;;;;;13.31;61.14;101833.59;5035421;28;45487;-73
2023/01/02 14:38:23;;;;;;;;;0.00;0.00;;;;;13.34;60.50;101850.53;5035175;28;45403;-75
2023/01/02 14:40:49;;;;;;;;;0.50;0.00;;;;;13.20;60.54;101840.28;5026722;28;45361;-74
2023/01/02 14:43:29;;;;;;;;;0.00;0.00;;;;;13.17;60.43;101853.88;5034929;28;45340;-73
2023/01/02 14:45:57;;;;;;;;;1.50;1.00;;;;;13.10;60.31;101849.63;5016441;28;45473;-74
2023/01/02 14:48:50;;;;;;;;;1.00;1.00;;;;;13.07;59.42;101860.53;5035001;28;45269;-73
2023/01/02 14:51:26;;;;;;;;;0.00;0.00;;;;;13.16;59.77;101864.72;5002928;28;45210;-74
2023/01/02 14:53:56;;;;;;;;;0.00;0.00;;;;;13.12;58.95;101877.38;5031341;28;45554;-72
2023/01/02 14:56:34;;;;;;;;;0.25;0.25;;;;;13.18;59.25;101882.53;5035295;28;45426;-71
2023/01/02 14:59:01;;;;;;;;;0.00;0.00;;;;;13.16;58.56;101879.06;5014944;28;45463;-74
2023/01/02 15:01:32;;;;;;;;;2.50;0.00;;;;;13.10;59.18;101881.06;5027800;28;45359;-75
2023/01/02 15:04:15;;;;;;;;;3.50;0.75;;;;;13.01;58.90;101887.69;5035051;28;45276;-74
2023/01/02 15:06:50;;;;;;;;;0.25;0.25;;;;;12.95;59.10;101881.63;5034966;28;45229;-75
2023/01/02 15:09:35;;;;;;;;;0.00;0.00;;;;;12.99;59.12;101904.81;5034914;28;45568;-74
2023/01/02 15:14:59;;;;;;;;;0.25;0.00;;;;;12.79;59.31;101900.16;5035060;28;45378;-75
2023/01/02 15:17:25;;;;;;;;;0.00;0.00;;;;;12.69;59.50;101890.66;5034921;28;45584;-75
2023/01/02 15:19:50;;;;;;;;;1.00;0.00;;;;;12.73;59.72;101920.13;5034944;28;45412;-74
2023/01/02 15:22:18;;;;;;;;;1.00;1.00;;;;;12.63;59.70;101904.34;5034574;28;45299;-75
2023/01/02 15:24:53;;;;;;;;;0.00;0.00;;;;;12.67;59.85;101919.47;5034743;28;45395;-74
2023/01/02 15:27:27;;;;;;;;;0.00;0.00;;;;;12.66;59.84;101918.59;5036570;28;45522;-73
2023/01/02 15:29:58;;;;;;;;;1.00;1.00;;;;;12.61;60.48;101908.91;5023624;28;45414;-75
2023/01/02 15:32:25;;;;;;;;;0.50;0.25;;;;;12.66;60.62;101923.09;5035177;28;45498;-73
2023/01/02 15:34:51;;;;;;;;;0.00;0.00;;;;;12.61;60.11;101912.47;5021655;28;45419;-74
2023/01/02 15:37:20;;;;;;;;;2.00;0.75;;;;;12.47;60.58;101912.09;5034465;28;45356;-74
2023/01/02 15:39:48;;;;;;;;;0.75;0.75;;;;;12.61;60.32;101922.34;5010148;28;45364;-74
2023/01/02 15:45:16;;;;;;;;;1.00;1.00;;;;;12.62;60.51;101938.44;5029723;28;45173;-74
2023/01/02 15:47:49;;;;;;;;;1.00;1.00;;;;;12.52;60.40;101926.25;5034248;28;45463;-73
2023/01/02 15:50:25;;;;;;;;;1.00;1.00;;;;;12.58;59.53;101944.88;5033992;28;45217;-74
2023/01/02 15:53:00;;;;;;;;;1.75;1.75;;;;;12.54;60.21;101943.22;5034447;28;45411;-74
2023/01/02 15:55:30;;;;;;;;;0.75;0.75;;;;;12.54;60.46;101953.97;5034546;28;45412;-73
2023/01/02 15:57:55;;;;;;;;;1.00;1.00;;;;;12.44;60.79;101931.00;5024330;28;45419;-75
2023/01/02 16:00:28;;;;;;;;;0.25;0.25;;;;;12.29;60.53;101921.66;5017293;28;45460;-73
2023/01/02 16:02:53;;;;;;;;;0.50;0.50;;;;;12.37;60.37;101935.72;5034543;28;45469;-74
2023/01/02 16:05:19;;;;;;;;;1.00;1.00;;;;;12.50;60.66;101965.78;5028860;28;45395;-74
2023/01/02 16:07:50;;;;;;;;;0.25;0.25;;;;;12.34;60.18;101943.00;5005512;28;45861;-73
2023/01/02 16:10:20;;;;;;;;;0.00;0.00;;;;;12.42;60.32;101966.03;5013977;28;45745;-74
2023/01/02 16:12:55;;;;;;;;;0.50;0.00;;;;;12.23;60.54;101937.13;5014356;28;45553;-74
2023/01/02 16:15:25;;;;;;;;;0.00;0.00;;;;;12.37;61.17;101970.69;5013963;28;45443;-74
2023/01/02 16:17:53;;;;;;;;;0.50;0.50;;;;;12.41;61.42;101960.72;5027300;28;45241;-74
2023/01/02 16:20:20;;;;;;;;;0.00;0.00;;;;;12.40;61.10;101970.59;5033963;28;45664;-75
2023/01/02 16:22:55;;;;;;;;;1.00;1.00;;;;;12.20;60.94;101945.28;5034105;28;45444;-76
2023/01/02 16:25:35;;;;;;;;;1.00;1.00;;;;;12.21;61.68;101961.38;5021289;28;45471;-74
2023/01/02 16:28:13;;;;;;;;;1.75;1.75;;;;;12.32;61.83;101978.06;5030853;28;45378;-74
2023/01/02 16:30:44;;;;;;;;;3.00;2.00;;;;;12.34;61.92;101978.84;5034054;28;45526;-76
2023/01/02 16:33:20;;;;;;;;;3.75;2.00;;;;;12.37;62.04;101989.50;5015702;28;45364;-75
2023/01/02 16:36:05;;;;;;;;;2.00;2.00;;;;;12.38;61.98;101985.91;5032360;28;45352;-70
2023/01/02 16:39:01;;;;;;;;;1.00;1.00;;;;;12.32;62.15;101988.81;5034308;28;45353;-75
2023/01/02 16:41:40;;;;;;;;;1.75;1.75;;;;;12.31;62.17;101997.81;5019127;28;46080;-74
2023/01/02 16:44:16;;;;;;;;;1.50;1.50;;;;;12.29;62.58;101999.66;5019589;28;45392;-75
2023/01/02 16:46:44;;;;;;;;;1.00;1.00;;;;;12.22;62.74;102002.59;5025053;28;45470;-76
2023/01/02 16:49:16;;;;;;;;;1.00;1.00;;;;;12.19;62.83;102000.88;5033288;28;45458;-76
2023/01/02 16:51:47;;;;;;;;;1.00;1.00;;;;;12.25;63.01;102018.63;5018361;28;47508;-74
2023/01/02 16:54:18;;;;;;;;;1.50;1.50;;;;;12.25;63.28;102024.00;5037868;28;45253;-74
2023/01/02 16:56:43;;;;;;;;;3.00;2.00;;;;;12.16;63.75;102022.50;5038897;28;45376;-75
2023/01/02 16:59:08;;;;;;;;;2.00;2.00;;;;;12.12;63.55;102019.03;5017974;28;45514;-74
2023/01/02 17:01:34;;;;;;;;;2.00;2.00;;;;;12.20;63.96;102031.31;5015812;28;46362;-74
2023/01/02 17:03:59;;;;;;;;;2.00;2.00;;;;;12.17;64.06;102021.53;5036664;28;45384;-74
2023/01/02 17:06:25;;;;;;;;;1.75;1.75;;;;;12.22;64.31;102035.75;5037254;28;45439;-74
2023/01/02 17:08:50;;;;;;;;;3.50;2.00;;;;;12.15;64.21;102031.50;5037013;28;45333;-73
2023/01/02 17:11:20;;;;;;;;;1.50;1.50;;;;;12.12;64.01;102037.84;5010182;28;47558;-73
2023/01/02 17:13:45;;;;;;;;;2.00;2.00;;;;;12.12;64.16;102042.34;5023979;28;45352;-73
2023/01/02 17:16:11;;;;;;;;;2.00;2.00;;;;;12.11;64.24;102037.88;5036898;28;45611;-74
2023/01/02 17:18:36;;;;;;;;;2.00;2.00;;;;;12.00;64.46;102032.84;5037010;28;45537;-75
2023/01/02 17:21:02;;;;;;;;;2.00;1.00;;;;;12.04;64.72;102033.63;5019299;28;46150;-77
2023/01/02 17:23:30;;;;;;;;;2.00;2.00;;;;;12.05;65.00;102049.72;5017111;28;45857;-73
2023/01/02 17:25:56;;;;;;;;;2.50;2.00;;;;;12.03;64.70;102051.56;5031431;28;45196;-75